sensor_id;sensor_type;location;lat;lon;timestamp;temperature;humidity
46085;DHT22;31823;47.032;8.310;2022-11-20T00:02:01;5.30;99.90
46085;DHT22;31823;47.032;8.310;2022-11-20T00:04:26;5.30;99.90
46085;DHT22;31823;47.032;8.310;2022-11-20T00:06:52;5.30;99.90
46085;DHT22;31823;47.032;8.310;2022-11-20T00:09:17;5.30;99.90
46085;DHT22;31823;47.032;8.310;2022-11-20T00:11:43;5.30;99.90
46085;DHT22;31823;47.032;8.310;2022-11-20T00:14:09;5.40;99.90
46085;DHT22;31823;47.032;8.310;2022-11-20T00:16:35;5.40;99.90
46085;DHT22;31823;47.032;8.310;2022-11-20T00:19:01;5.30;99.90
46085;DHT22;31823;47.032;8.310;2022-11-20T00:21:28;5.30;99.90
46085;DHT22;31823;47.032;8.310;2022-11-20T00:23:55;5.30;99.90
46085;DHT22;31823;47.032;8.310;2022-11-20T00:26:22;5.30;99.90
46085;DHT22;31823;47.032;8.310;2022-11-20T00:28:53;5.30;99.90
46085;DHT22;31823;47.032;8.310;2022-11-20T00:31:19;5.30;99.90
46085;DHT22;31823;47.032;8.310;2022-11-20T00:33:45;5.40;99.90
46085;DHT22;31823;47.032;8.310;2022-11-20T00:36:20;5.40;99.90
46085;DHT22;31823;47.032;8.310;2022-11-20T00:38:46;5.30;99.90
46085;DHT22;31823;47.032;8.310;2022-11-20T00:41:15;5.40;99.90
46085;DHT22;31823;47.032;8.310;2022-11-20T00:43:41;5.40;99.90
46085;DHT22;31823;47.032;8.310;2022-11-20T00:48:40;5.40;99.90
46085;DHT22;31823;47.032;8.310;2022-11-20T00:51:06;5.40;99.90
46085;DHT22;31823;47.032;8.310;2022-11-20T00:53:32;5.30;99.90
46085;DHT22;31823;47.032;8.310;2022-11-20T00:56:03;5.40;99.90
46085;DHT22;31823;47.032;8.310;2022-11-20T00:58:35;5.40;99.90
46085;DHT22;31823;47.032;8.310;2022-11-20T01:03:36;5.40;99.90
46085;DHT22;31823;47.032;8.310;2022-11-20T01:06:11;5.40;99.90
46085;DHT22;31823;47.032;8.310;2022-11-20T01:08:37;5.40;99.90
46085;DHT22;31823;47.032;8.310;2022-11-20T01:11:06;5.40;99.90
46085;DHT22;31823;47.032;8.310;2022-11-20T01:13:32;5.40;99.90
46085;DHT22;31823;47.032;8.310;2022-11-20T01:18:32;5.40;99.90
46085;DHT22;31823;47.032;8.310;2022-11-20T01:21:03;5.40;99.90
46085;DHT22;31823;47.032;8.310;2022-11-20T01:23:34;5.40;99.90
46085;DHT22;31823;47.032;8.310;2022-11-20T01:26:02;5.50;99.90
46085;DHT22;31823;47.032;8.310;2022-11-20T01:28:29;5.50;99.90
46085;DHT22;31823;47.032;8.310;2022-11-20T01:30:54;5.50;99.90
46085;DHT22;31823;47.032;8.310;2022-11-20T01:33:20;5.40;99.90
46085;DHT22;31823;47.032;8.310;2022-11-20T01:35:45;5.40;99.90
46085;DHT22;31823;47.032;8.310;2022-11-20T01:38:11;5.50;99.90
46085;DHT22;31823;47.032;8.310;2022-11-20T01:40:37;5.50;99.90
46085;DHT22;31823;47.032;8.310;2022-11-20T01:43:19;5.50;99.90
46085;DHT22;31823;47.032;8.310;2022-11-20T01:46:12;5.50;99.90
46085;DHT22;31823;47.032;8.310;2022-11-20T01:51:41;5.50;99.90
46085;DHT22;31823;47.032;8.310;2022-11-20T01:54:13;5.50;99.90
46085;DHT22;31823;47.032;8.310;2022-11-20T01:56:43;5.50;99.90
46085;DHT22;31823;47.032;8.310;2022-11-20T01:59:10;5.50;99.90
46085;DHT22;31823;47.032;8.310;2022-11-20T02:01:37;5.50;99.90
46085;DHT22;31823;47.032;8.310;2022-11-20T02:04:05;5.50;99.90
46085;DHT22;31823;47.032;8.310;2022-11-20T02:06:38;5.50;99.90
46085;DHT22;31823;47.032;8.310;2022-11-20T02:09:05;5.50;99.90
46085;DHT22;31823;47.032;8.310;2022-11-20T02:11:31;5.50;99.90
46085;DHT22;31823;47.032;8.310;2022-11-20T02:13:57;5.40;99.90
46085;DHT22;31823;47.032;8.310;2022-11-20T02:16:26;5.50;99.90
46085;DHT22;31823;47.032;8.310;2022-11-20T02:18:54;5.40;99.90
46085;DHT22;31823;47.032;8.310;2022-11-20T02:21:38;5.40;99.90
46085;DHT22;31823;47.032;8.310;2022-11-20T02:24:15;5.30;99.90
46085;DHT22;31823;47.032;8.310;2022-11-20T02:26:45;5.40;99.90
46085;DHT22;31823;47.032;8.310;2022-11-20T02:29:15;5.40;99.90
46085;DHT22;31823;47.032;8.310;2022-11-20T02:31:42;5.30;99.90
46085;DHT22;31823;47.032;8.310;2022-11-20T02:34:08;5.40;99.90
46085;DHT22;31823;47.032;8.310;2022-11-20T02:36:35;5.40;99.90
46085;DHT22;31823;47.032;8.310;2022-11-20T02:39:03;5.40;99.90
46085;DHT22;31823;47.032;8.310;2022-11-20T02:41:36;5.40;99.90
46085;DHT22;31823;47.032;8.310;2022-11-20T02:44:04;5.30;99.90
46085;DHT22;31823;47.032;8.310;2022-11-20T02:46:30;5.30;99.90
46085;DHT22;31823;47.032;8.310;2022-11-20T02:48:56;5.30;99.90
46085;DHT22;31823;47.032;8.310;2022-11-20T02:51:22;5.40;99.90
46085;DHT22;31823;47.032;8.310;2022-11-20T02:53:47;5.40;99.90
46085;DHT22;31823;47.032;8.310;2022-11-20T02:56:13;5.40;99.90
46085;DHT22;31823;47.032;8.310;2022-11-20T02:58:39;5.40;99.90
46085;DHT22;31823;47.032;8.310;2022-11-20T03:01:05;5.30;99.90
46085;DHT22;31823;47.032;8.310;2022-11-20T03:03:30;5.30;99.90
46085;DHT22;31823;47.032;8.310;2022-11-20T03:05:58;5.30;99.90
46085;DHT22;31823;47.032;8.310;2022-11-20T03:08:24;5.20;99.90
46085;DHT22;31823;47.032;8.310;2022-11-20T03:10:51;5.20;99.90
46085;DHT22;31823;47.032;8.310;2022-11-20T03:13:17;5.20;99.90
46085;DHT22;31823;47.032;8.310;2022-11-20T03:15:42;5.30;99.90
46085;DHT22;31823;47.032;8.310;2022-11-20T03:18:08;5.30;99.90
46085;DHT22;31823;47.032;8.310;2022-11-20T03:20:34;5.20;99.90
46085;DHT22;31823;47.032;8.310;2022-11-20T03:23:00;5.20;99.90
46085;DHT22;31823;47.032;8.310;2022-11-20T03:25:25;5.10;99.90
46085;DHT22;31823;47.032;8.310;2022-11-20T03:27:51;5.10;99.90
46085;DHT22;31823;47.032;8.310;2022-11-20T03:30:17;5.10;99.90
46085;DHT22;31823;47.032;8.310;2022-11-20T03:32:43;5.20;99.90
46085;DHT22;31823;47.032;8.310;2022-11-20T03:35:09;5.10;99.90
46085;DHT22;31823;47.032;8.310;2022-11-20T03:37:35;5.10;99.90
46085;DHT22;31823;47.032;8.310;2022-11-20T03:40:00;5.10;99.90
46085;DHT22;31823;47.032;8.310;2022-11-20T03:42:26;5.10;99.90
46085;DHT22;31823;47.032;8.310;2022-11-20T03:45:10;5.00;99.90
46085;DHT22;31823;47.032;8.310;2022-11-20T03:47:36;5.00;99.90
46085;DHT22;31823;47.032;8.310;2022-11-20T03:50:02;5.00;99.90
46085;DHT22;31823;47.032;8.310;2022-11-20T03:52:28;5.00;99.90
46085;DHT22;31823;47.032;8.310;2022-11-20T03:54:53;5.00;99.90
46085;DHT22;31823;47.032;8.310;2022-11-20T03:57:19;5.10;99.90
46085;DHT22;31823;47.032;8.310;2022-11-20T03:59:45;5.00;99.90
46085;DHT22;31823;47.032;8.310;2022-11-20T04:02:10;5.00;99.90
46085;DHT22;31823;47.032;8.310;2022-11-20T04:04:36;5.10;99.90
46085;DHT22;31823;47.032;8.310;2022-11-20T04:07:02;5.00;99.90
46085;DHT22;31823;47.032;8.310;2022-11-20T04:09:28;5.00;99.90
46085;DHT22;31823;47.032;8.310;2022-11-20T04:11:53;4.80;99.90
46085;DHT22;31823;47.032;8.310;2022-11-20T04:14:19;4.80;99.90
46085;DHT22;31823;47.032;8.310;2022-11-20T04:16:45;4.80;99.90
46085;DHT22;31823;47.032;8.310;2022-11-20T04:19:13;4.80;99.90
46085;DHT22;31823;47.032;8.310;2022-11-20T04:21:39;4.70;99.90
46085;DHT22;31823;47.032;8.310;2022-11-20T04:24:05;4.70;99.90
46085;DHT22;31823;47.032;8.310;2022-11-20T04:26:31;4.60;99.90
46085;DHT22;31823;47.032;8.310;2022-11-20T04:28:58;4.50;99.90
46085;DHT22;31823;47.032;8.310;2022-11-20T04:31:26;4.50;99.90
46085;DHT22;31823;47.032;8.310;2022-11-20T04:33:52;4.50;99.90
46085;DHT22;31823;47.032;8.310;2022-11-20T04:36:20;4.50;99.90
46085;DHT22;31823;47.032;8.310;2022-11-20T04:38:49;4.50;99.90
46085;DHT22;31823;47.032;8.310;2022-11-20T04:41:18;4.50;99.90
46085;DHT22;31823;47.032;8.310;2022-11-20T04:43:53;4.50;99.90
46085;DHT22;31823;47.032;8.310;2022-11-20T04:46:20;4.50;99.90
46085;DHT22;31823;47.032;8.310;2022-11-20T04:48:46;4.60;99.90
46085;DHT22;31823;47.032;8.310;2022-11-20T04:51:12;4.60;99.90
46085;DHT22;31823;47.032;8.310;2022-11-20T04:53:38;4.60;99.90
46085;DHT22;31823;47.032;8.310;2022-11-20T04:56:07;4.50;99.90
46085;DHT22;31823;47.032;8.310;2022-11-20T04:58:33;4.60;99.90
46085;DHT22;31823;47.032;8.310;2022-11-20T05:01:02;4.70;99.90
46085;DHT22;31823;47.032;8.310;2022-11-20T05:03:29;4.70;99.90
46085;DHT22;31823;47.032;8.310;2022-11-20T05:05:54;4.50;99.90
46085;DHT22;31823;47.032;8.310;2022-11-20T05:08:20;4.60;99.90
46085;DHT22;31823;47.032;8.310;2022-11-20T05:10:46;4.50;99.90
46085;DHT22;31823;47.032;8.310;2022-11-20T05:13:11;4.60;99.90
46085;DHT22;31823;47.032;8.310;2022-11-20T05:15:37;4.60;99.90
46085;DHT22;31823;47.032;8.310;2022-11-20T05:18:03;4.50;99.90
46085;DHT22;31823;47.032;8.310;2022-11-20T05:20:28;4.50;99.90
46085;DHT22;31823;47.032;8.310;2022-11-20T05:22:57;4.50;99.90
46085;DHT22;31823;47.032;8.310;2022-11-20T05:25:22;4.50;99.90
46085;DHT22;31823;47.032;8.310;2022-11-20T05:27:48;4.40;99.90
46085;DHT22;31823;47.032;8.310;2022-11-20T05:30:14;4.30;99.90
46085;DHT22;31823;47.032;8.310;2022-11-20T05:32:40;4.30;99.90
46085;DHT22;31823;47.032;8.310;2022-11-20T05:35:05;4.40;99.90
46085;DHT22;31823;47.032;8.310;2022-11-20T05:37:31;4.50;99.90
46085;DHT22;31823;47.032;8.310;2022-11-20T05:39:57;4.50;99.90
46085;DHT22;31823;47.032;8.310;2022-11-20T05:42:22;4.50;99.90
46085;DHT22;31823;47.032;8.310;2022-11-20T05:45:02;4.50;99.90
46085;DHT22;31823;47.032;8.310;2022-11-20T05:47:31;4.50;99.90
46085;DHT22;31823;47.032;8.310;2022-11-20T05:49:57;4.60;99.90
46085;DHT22;31823;47.032;8.310;2022-11-20T05:52:22;4.70;99.90
46085;DHT22;31823;47.032;8.310;2022-11-20T05:54:48;4.70;99.90
46085;DHT22;31823;47.032;8.310;2022-11-20T05:57:14;4.60;99.90
46085;DHT22;31823;47.032;8.310;2022-11-20T05:59:39;4.60;99.90
46085;DHT22;31823;47.032;8.310;2022-11-20T06:02:05;4.60;99.90
46085;DHT22;31823;47.032;8.310;2022-11-20T06:04:30;4.60;99.90
46085;DHT22;31823;47.032;8.310;2022-11-20T06:06:56;4.60;99.90
46085;DHT22;31823;47.032;8.310;2022-11-20T06:09:21;4.60;99.90
46085;DHT22;31823;47.032;8.310;2022-11-20T06:11:47;4.60;99.90
46085;DHT22;31823;47.032;8.310;2022-11-20T06:14:13;4.50;99.90
46085;DHT22;31823;47.032;8.310;2022-11-20T06:16:38;4.50;99.90
46085;DHT22;31823;47.032;8.310;2022-11-20T06:19:04;4.50;99.90
46085;DHT22;31823;47.032;8.310;2022-11-20T06:21:29;4.50;99.90
46085;DHT22;31823;47.032;8.310;2022-11-20T06:23:55;4.60;99.90
46085;DHT22;31823;47.032;8.310;2022-11-20T06:26:22;4.50;99.90
46085;DHT22;31823;47.032;8.310;2022-11-20T06:28:49;4.40;99.90
46085;DHT22;31823;47.032;8.310;2022-11-20T06:31:20;4.50;99.90
46085;DHT22;31823;47.032;8.310;2022-11-20T06:33:46;4.50;99.90
46085;DHT22;31823;47.032;8.310;2022-11-20T06:36:14;4.50;99.90
46085;DHT22;31823;47.032;8.310;2022-11-20T06:38:40;4.50;99.90
46085;DHT22;31823;47.032;8.310;2022-11-20T06:41:07;4.60;99.90
46085;DHT22;31823;47.032;8.310;2022-11-20T06:43:35;4.60;99.90
46085;DHT22;31823;47.032;8.310;2022-11-20T06:46:00;4.60;99.90
46085;DHT22;31823;47.032;8.310;2022-11-20T06:48:27;4.70;99.90
46085;DHT22;31823;47.032;8.310;2022-11-20T06:50:53;4.70;99.90
46085;DHT22;31823;47.032;8.310;2022-11-20T06:53:19;4.70;99.90
46085;DHT22;31823;47.032;8.310;2022-11-20T06:55:48;4.70;99.90
46085;DHT22;31823;47.032;8.310;2022-11-20T06:58:15;4.60;99.90
46085;DHT22;31823;47.032;8.310;2022-11-20T07:00:40;4.60;99.90
46085;DHT22;31823;47.032;8.310;2022-11-20T07:03:08;4.60;99.90
46085;DHT22;31823;47.032;8.310;2022-11-20T07:05:35;4.60;99.90
46085;DHT22;31823;47.032;8.310;2022-11-20T07:08:01;4.70;99.90
46085;DHT22;31823;47.032;8.310;2022-11-20T07:10:27;4.70;99.90
46085;DHT22;31823;47.032;8.310;2022-11-20T07:12:53;4.70;99.90
46085;DHT22;31823;47.032;8.310;2022-11-20T07:15:21;4.70;99.90
46085;DHT22;31823;47.032;8.310;2022-11-20T07:17:47;4.70;99.90
46085;DHT22;31823;47.032;8.310;2022-11-20T07:20:13;4.80;99.90
46085;DHT22;31823;47.032;8.310;2022-11-20T07:22:39;4.80;99.90
46085;DHT22;31823;47.032;8.310;2022-11-20T07:25:06;4.80;99.90
46085;DHT22;31823;47.032;8.310;2022-11-20T07:27:31;4.80;99.90
46085;DHT22;31823;47.032;8.310;2022-11-20T07:30:07;4.80;99.90
46085;DHT22;31823;47.032;8.310;2022-11-20T07:32:33;4.70;99.90
46085;DHT22;31823;47.032;8.310;2022-11-20T07:34:58;4.80;99.90
46085;DHT22;31823;47.032;8.310;2022-11-20T07:37:24;4.80;99.90
46085;DHT22;31823;47.032;8.310;2022-11-20T07:39:49;4.90;99.90
46085;DHT22;31823;47.032;8.310;2022-11-20T07:42:15;4.90;99.90
46085;DHT22;31823;47.032;8.310;2022-11-20T07:44:41;5.00;99.90
46085;DHT22;31823;47.032;8.310;2022-11-20T07:47:06;5.10;99.90
46085;DHT22;31823;47.032;8.310;2022-11-20T07:49:32;5.10;99.90
46085;DHT22;31823;47.032;8.310;2022-11-20T07:51:58;5.10;99.90
46085;DHT22;31823;47.032;8.310;2022-11-20T07:54:24;5.10;99.90
46085;DHT22;31823;47.032;8.310;2022-11-20T07:56:50;5.20;99.90
46085;DHT22;31823;47.032;8.310;2022-11-20T07:59:15;5.30;99.90
46085;DHT22;31823;47.032;8.310;2022-11-20T08:01:42;5.40;99.90
46085;DHT22;31823;47.032;8.310;2022-11-20T08:04:08;5.40;99.90
46085;DHT22;31823;47.032;8.310;2022-11-20T08:06:35;5.60;99.90
46085;DHT22;31823;47.032;8.310;2022-11-20T08:09:00;5.70;99.90
46085;DHT22;31823;47.032;8.310;2022-11-20T08:11:26;5.70;99.90
46085;DHT22;31823;47.032;8.310;2022-11-20T08:14:10;5.80;99.90
46085;DHT22;31823;47.032;8.310;2022-11-20T08:16:43;5.80;99.90
46085;DHT22;31823;47.032;8.310;2022-11-20T08:19:10;5.90;99.90
46085;DHT22;31823;47.032;8.310;2022-11-20T08:21:35;5.90;99.90
46085;DHT22;31823;47.032;8.310;2022-11-20T08:24:01;5.90;99.90
46085;DHT22;31823;47.032;8.310;2022-11-20T08:26:26;5.90;99.90
46085;DHT22;31823;47.032;8.310;2022-11-20T08:28:56;5.90;99.90
46085;DHT22;31823;47.032;8.310;2022-11-20T08:31:26;6.00;99.90
46085;DHT22;31823;47.032;8.310;2022-11-20T08:33:52;6.00;99.90
46085;DHT22;31823;47.032;8.310;2022-11-20T08:36:19;6.00;99.90
46085;DHT22;31823;47.032;8.310;2022-11-20T08:38:49;5.90;99.90
46085;DHT22;31823;47.032;8.310;2022-11-20T08:41:15;5.90;99.90
46085;DHT22;31823;47.032;8.310;2022-11-20T08:43:52;5.90;99.90
46085;DHT22;31823;47.032;8.310;2022-11-20T08:46:18;5.90;99.90
46085;DHT22;31823;47.032;8.310;2022-11-20T08:48:44;5.90;99.90
46085;DHT22;31823;47.032;8.310;2022-11-20T08:51:11;5.90;99.90
46085;DHT22;31823;47.032;8.310;2022-11-20T08:53:37;6.00;99.90
46085;DHT22;31823;47.032;8.310;2022-11-20T08:56:03;6.00;99.90
46085;DHT22;31823;47.032;8.310;2022-11-20T08:58:28;6.00;99.90
46085;DHT22;31823;47.032;8.310;2022-11-20T09:00:54;6.10;99.90
46085;DHT22;31823;47.032;8.310;2022-11-20T09:03:20;6.20;99.90
46085;DHT22;31823;47.032;8.310;2022-11-20T09:05:45;6.20;99.90
46085;DHT22;31823;47.032;8.310;2022-11-20T09:08:11;6.20;99.90
46085;DHT22;31823;47.032;8.310;2022-11-20T09:10:37;6.20;99.90
46085;DHT22;31823;47.032;8.310;2022-11-20T09:13:05;6.20;99.90
46085;DHT22;31823;47.032;8.310;2022-11-20T09:15:31;6.30;99.90
46085;DHT22;31823;47.032;8.310;2022-11-20T09:17:59;6.40;99.90
46085;DHT22;31823;47.032;8.310;2022-11-20T09:20:26;6.40;99.90
46085;DHT22;31823;47.032;8.310;2022-11-20T09:22:54;6.40;99.90
46085;DHT22;31823;47.032;8.310;2022-11-20T09:25:20;6.40;99.90
46085;DHT22;31823;47.032;8.310;2022-11-20T09:27:46;6.50;99.90
46085;DHT22;31823;47.032;8.310;2022-11-20T09:30:13;7.10;99.90
46085;DHT22;31823;47.032;8.310;2022-11-20T09:32:40;8.20;99.90
46085;DHT22;31823;47.032;8.310;2022-11-20T09:35:05;9.30;99.90
46085;DHT22;31823;47.032;8.310;2022-11-20T09:37:31;8.10;99.90
46085;DHT22;31823;47.032;8.310;2022-11-20T09:39:57;8.10;99.90
46085;DHT22;31823;47.032;8.310;2022-11-20T09:56:25;7.50;99.90
46085;DHT22;31823;47.032;8.310;2022-11-20T09:58:52;7.40;99.90
46085;DHT22;31823;47.032;8.310;2022-11-20T10:01:21;7.40;99.90
46085;DHT22;31823;47.032;8.310;2022-11-20T10:06:18;7.30;99.90
46085;DHT22;31823;47.032;8.310;2022-11-20T10:09:18;7.40;99.90
46085;DHT22;31823;47.032;8.310;2022-11-20T10:31:38;7.30;99.90
46085;DHT22;31823;47.032;8.310;2022-11-20T10:35:01;7.40;99.90
46085;DHT22;31823;47.032;8.310;2022-11-20T10:37:30;7.40;99.90
46085;DHT22;31823;47.032;8.310;2022-11-20T10:39:58;7.40;99.90
46085;DHT22;31823;47.032;8.310;2022-11-20T10:42:37;7.40;99.90
46085;DHT22;31823;47.032;8.310;2022-11-20T10:48:20;7.30;99.90
46085;DHT22;31823;47.032;8.310;2022-11-20T10:50:52;7.30;99.90
46085;DHT22;31823;47.032;8.310;2022-11-20T10:56:29;7.30;99.90
46085;DHT22;31823;47.032;8.310;2022-11-20T11:01:44;7.40;99.90
46085;DHT22;31823;47.032;8.310;2022-11-20T11:04:37;7.50;99.90
46085;DHT22;31823;47.032;8.310;2022-11-20T11:07:29;7.60;99.90
46085;DHT22;31823;47.032;8.310;2022-11-20T11:09:56;7.50;99.90
46085;DHT22;31823;47.032;8.310;2022-11-20T11:12:25;7.70;99.90
46085;DHT22;31823;47.032;8.310;2022-11-20T11:14:53;7.90;99.90
46085;DHT22;31823;47.032;8.310;2022-11-20T11:20:00;7.80;99.90
46085;DHT22;31823;47.032;8.310;2022-11-20T11:22:28;7.90;99.90
46085;DHT22;31823;47.032;8.310;2022-11-20T11:24:55;7.80;99.90
46085;DHT22;31823;47.032;8.310;2022-11-20T11:27:21;7.90;99.90
46085;DHT22;31823;47.032;8.310;2022-11-20T11:29:46;8.10;99.90
46085;DHT22;31823;47.032;8.310;2022-11-20T11:32:18;8.20;99.90
46085;DHT22;31823;47.032;8.310;2022-11-20T11:34:44;8.20;99.90
46085;DHT22;31823;47.032;8.310;2022-11-20T11:37:18;8.30;99.90
46085;DHT22;31823;47.032;8.310;2022-11-20T11:39:46;8.40;99.90
46085;DHT22;31823;47.032;8.310;2022-11-20T11:42:17;8.40;99.90
46085;DHT22;31823;47.032;8.310;2022-11-20T11:44:47;8.50;99.90
46085;DHT22;31823;47.032;8.310;2022-11-20T11:47:36;8.40;99.90
46085;DHT22;31823;47.032;8.310;2022-11-20T11:56:02;8.50;99.90
46085;DHT22;31823;47.032;8.310;2022-11-20T11:58:52;8.40;99.90
46085;DHT22;31823;47.032;8.310;2022-11-20T12:07:15;8.60;99.90
46085;DHT22;31823;47.032;8.310;2022-11-20T12:09:49;9.00;99.90
46085;DHT22;31823;47.032;8.310;2022-11-20T12:12:20;8.90;99.90
46085;DHT22;31823;47.032;8.310;2022-11-20T12:14:48;8.80;99.90
46085;DHT22;31823;47.032;8.310;2022-11-20T12:17:16;8.60;99.90
46085;DHT22;31823;47.032;8.310;2022-11-20T12:19:43;8.60;99.90
46085;DHT22;31823;47.032;8.310;2022-11-20T12:30:23;8.70;99.90
46085;DHT22;31823;47.032;8.310;2022-11-20T12:43:44;8.70;99.90
46085;DHT22;31823;47.032;8.310;2022-11-20T12:46:47;8.50;99.90
46085;DHT22;31823;47.032;8.310;2022-11-20T12:51:57;8.60;99.90
46085;DHT22;31823;47.032;8.310;2022-11-20T12:57:26;8.50;99.90
46085;DHT22;31823;47.032;8.310;2022-11-20T13:00:18;8.60;99.90
46085;DHT22;31823;47.032;8.310;2022-11-20T13:05:35;8.40;99.90
46085;DHT22;31823;47.032;8.310;2022-11-20T13:08:03;8.20;99.90
46085;DHT22;31823;47.032;8.310;2022-11-20T13:10:37;8.20;99.90
46085;DHT22;31823;47.032;8.310;2022-11-20T13:13:19;11.80;99.90
46085;DHT22;31823;47.032;8.310;2022-11-20T13:16:10;11.60;99.90
46085;DHT22;31823;47.032;8.310;2022-11-20T13:18:39;9.60;99.90
46085;DHT22;31823;47.032;8.310;2022-11-20T13:21:15;9.00;99.90
46085;DHT22;31823;47.032;8.310;2022-11-20T13:23:41;8.80;99.90
46085;DHT22;31823;47.032;8.310;2022-11-20T13:26:22;8.60;99.90
46085;DHT22;31823;47.032;8.310;2022-11-20T13:29:01;8.40;99.90
46085;DHT22;31823;47.032;8.310;2022-11-20T13:31:34;8.40;99.90
46085;DHT22;31823;47.032;8.310;2022-11-20T13:34:04;8.30;99.90
46085;DHT22;31823;47.032;8.310;2022-11-20T13:36:31;8.40;99.90
46085;DHT22;31823;47.032;8.310;2022-11-20T13:38:58;13.50;99.90
46085;DHT22;31823;47.032;8.310;2022-11-20T13:41:34;14.90;97.30
46085;DHT22;31823;47.032;8.310;2022-11-20T13:46:36;16.60;95.90
46085;DHT22;31823;47.032;8.310;2022-11-20T13:49:07;17.40;92.60
46085;DHT22;31823;47.032;8.310;2022-11-20T14:00:03;16.90;92.60
46085;DHT22;31823;47.032;8.310;2022-11-20T14:02:30;19.10;89.30
46085;DHT22;31823;47.032;8.310;2022-11-20T14:04:58;18.80;87.30
46085;DHT22;31823;47.032;8.310;2022-11-20T14:07:35;16.00;90.90
46085;DHT22;31823;47.032;8.310;2022-11-20T14:10:03;13.80;92.90
46085;DHT22;31823;47.032;8.310;2022-11-20T14:12:31;11.80;95.40
46085;DHT22;31823;47.032;8.310;2022-11-20T14:14:57;10.60;98.50
46085;DHT22;31823;47.032;8.310;2022-11-20T14:17:28;10.60;99.00
46085;DHT22;31823;47.032;8.310;2022-11-20T14:20:07;10.30;99.00
46085;DHT22;31823;47.032;8.310;2022-11-20T14:22:37;9.80;99.90
46085;DHT22;31823;47.032;8.310;2022-11-20T14:25:07;9.30;99.90
46085;DHT22;31823;47.032;8.310;2022-11-20T14:27:52;9.00;99.90
46085;DHT22;31823;47.032;8.310;2022-11-20T14:30:24;9.10;99.90
46085;DHT22;31823;47.032;8.310;2022-11-20T14:32:53;9.30;99.90
46085;DHT22;31823;47.032;8.310;2022-11-20T14:37:52;7.90;99.90
46085;DHT22;31823;47.032;8.310;2022-11-20T14:40:27;7.60;99.90
46085;DHT22;31823;47.032;8.310;2022-11-20T14:42:53;7.50;99.90
46085;DHT22;31823;47.032;8.310;2022-11-20T14:45:19;7.50;99.90
46085;DHT22;31823;47.032;8.310;2022-11-20T14:47:46;7.30;99.90
46085;DHT22;31823;47.032;8.310;2022-11-20T14:50:25;7.20;99.90
46085;DHT22;31823;47.032;8.310;2022-11-20T14:52:59;7.30;99.90
46085;DHT22;31823;47.032;8.310;2022-11-20T14:55:33;7.10;99.90
46085;DHT22;31823;47.032;8.310;2022-11-20T14:58:02;6.90;99.90
46085;DHT22;31823;47.032;8.310;2022-11-20T15:00:29;6.80;99.90
46085;DHT22;31823;47.032;8.310;2022-11-20T15:02:56;6.80;99.90
46085;DHT22;31823;47.032;8.310;2022-11-20T15:05:43;6.70;99.90
46085;DHT22;31823;47.032;8.310;2022-11-20T15:08:13;6.50;99.90
46085;DHT22;31823;47.032;8.310;2022-11-20T15:10:45;6.40;99.90
46085;DHT22;31823;47.032;8.310;2022-11-20T15:13:18;6.30;99.90
46085;DHT22;31823;47.032;8.310;2022-11-20T15:15:50;6.20;99.90
46085;DHT22;31823;47.032;8.310;2022-11-20T15:18:19;6.20;99.90
46085;DHT22;31823;47.032;8.310;2022-11-20T15:20:46;6.00;99.90
46085;DHT22;31823;47.032;8.310;2022-11-20T15:23:14;6.00;99.90
46085;DHT22;31823;47.032;8.310;2022-11-20T15:25:41;5.80;99.90
46085;DHT22;31823;47.032;8.310;2022-11-20T15:30:50;5.70;99.90
46085;DHT22;31823;47.032;8.310;2022-11-20T15:33:17;5.60;99.90
46085;DHT22;31823;47.032;8.310;2022-11-20T15:35:43;5.50;99.90
46085;DHT22;31823;47.032;8.310;2022-11-20T15:38:09;5.60;99.90
46085;DHT22;31823;47.032;8.310;2022-11-20T15:40:35;5.40;99.90
46085;DHT22;31823;47.032;8.310;2022-11-20T15:43:01;5.40;99.90
46085;DHT22;31823;47.032;8.310;2022-11-20T15:45:39;5.30;99.90
46085;DHT22;31823;47.032;8.310;2022-11-20T15:48:15;5.20;99.90
46085;DHT22;31823;47.032;8.310;2022-11-20T15:53:16;5.20;99.90
46085;DHT22;31823;47.032;8.310;2022-11-20T15:55:42;5.10;99.90
46085;DHT22;31823;47.032;8.310;2022-11-20T15:58:07;5.00;99.90
46085;DHT22;31823;47.032;8.310;2022-11-20T16:00:33;4.90;99.90
46085;DHT22;31823;47.032;8.310;2022-11-20T16:02:58;4.90;99.90
46085;DHT22;31823;47.032;8.310;2022-11-20T16:05:28;4.70;99.90
46085;DHT22;31823;47.032;8.310;2022-11-20T16:07:53;4.70;99.90
46085;DHT22;31823;47.032;8.310;2022-11-20T16:10:19;4.70;99.90
46085;DHT22;31823;47.032;8.310;2022-11-20T16:12:44;4.60;99.90
46085;DHT22;31823;47.032;8.310;2022-11-20T16:15:29;4.70;99.90
46085;DHT22;31823;47.032;8.310;2022-11-20T16:18:16;4.70;99.90
46085;DHT22;31823;47.032;8.310;2022-11-20T16:20:44;4.60;99.90
46085;DHT22;31823;47.032;8.310;2022-11-20T16:23:09;4.60;99.90
46085;DHT22;31823;47.032;8.310;2022-11-20T16:25:35;4.60;99.90
46085;DHT22;31823;47.032;8.310;2022-11-20T16:28:01;4.60;99.90
46085;DHT22;31823;47.032;8.310;2022-11-20T16:30:26;4.60;99.90
46085;DHT22;31823;47.032;8.310;2022-11-20T16:32:52;4.60;99.90
46085;DHT22;31823;47.032;8.310;2022-11-20T16:35:18;4.70;99.90
46085;DHT22;31823;47.032;8.310;2022-11-20T16:37:43;4.70;99.90
46085;DHT22;31823;47.032;8.310;2022-11-20T16:40:10;4.70;99.90
46085;DHT22;31823;47.032;8.310;2022-11-20T16:42:37;4.70;99.90
46085;DHT22;31823;47.032;8.310;2022-11-20T16:45:03;4.60;99.90
46085;DHT22;31823;47.032;8.310;2022-11-20T16:47:35;4.70;99.90
46085;DHT22;31823;47.032;8.310;2022-11-20T16:50:02;4.70;99.90
46085;DHT22;31823;47.032;8.310;2022-11-20T16:52:29;4.70;99.90
46085;DHT22;31823;47.032;8.310;2022-11-20T16:54:55;4.80;99.90
46085;DHT22;31823;47.032;8.310;2022-11-20T16:57:22;4.80;99.90
46085;DHT22;31823;47.032;8.310;2022-11-20T16:59:48;4.80;99.90
46085;DHT22;31823;47.032;8.310;2022-11-20T17:02:14;4.80;99.90
46085;DHT22;31823;47.032;8.310;2022-11-20T17:04:40;4.70;99.90
46085;DHT22;31823;47.032;8.310;2022-11-20T17:07:06;4.70;99.90
46085;DHT22;31823;47.032;8.310;2022-11-20T17:09:32;4.80;99.90
46085;DHT22;31823;47.032;8.310;2022-11-20T17:11:57;4.70;99.90
46085;DHT22;31823;47.032;8.310;2022-11-20T17:14:23;4.70;99.90
46085;DHT22;31823;47.032;8.310;2022-11-20T17:16:49;4.70;99.90
46085;DHT22;31823;47.032;8.310;2022-11-20T17:19:14;4.60;99.90
46085;DHT22;31823;47.032;8.310;2022-11-20T17:21:40;4.60;99.90
46085;DHT22;31823;47.032;8.310;2022-11-20T17:24:08;4.60;99.90
46085;DHT22;31823;47.032;8.310;2022-11-20T17:26:35;4.60;99.90
46085;DHT22;31823;47.032;8.310;2022-11-20T17:29:07;4.60;99.90
46085;DHT22;31823;47.032;8.310;2022-11-20T17:31:35;4.70;99.90
46085;DHT22;31823;47.032;8.310;2022-11-20T17:34:03;4.70;99.90
46085;DHT22;31823;47.032;8.310;2022-11-20T17:36:29;4.70;99.90
46085;DHT22;31823;47.032;8.310;2022-11-20T17:38:55;4.80;99.90
46085;DHT22;31823;47.032;8.310;2022-11-20T17:41:25;4.80;99.90
46085;DHT22;31823;47.032;8.310;2022-11-20T17:43:55;4.80;99.90
46085;DHT22;31823;47.032;8.310;2022-11-20T17:46:24;4.80;99.90
46085;DHT22;31823;47.032;8.310;2022-11-20T17:48:50;4.80;99.90
46085;DHT22;31823;47.032;8.310;2022-11-20T17:51:22;4.90;99.90